createdAt,value
2022-09-07T00:02:44.132Z,2.60
2022-09-07T00:08:55.593Z,2.67
2022-09-07T00:15:06.430Z,2.12
2022-09-07T00:21:16.757Z,1.90
2022-09-07T00:27:31.921Z,1.98
2022-09-07T00:33:41.122Z,1.70
2022-09-07T00:39:55.399Z,1.87
2022-09-07T00:46:08.573Z,1.47
2022-09-07T00:52:21.460Z,1.55
2022-09-07T00:58:32.780Z,1.20
2022-09-07T01:04:44.617Z,1.77
2022-09-07T01:10:54.854Z,1.57
2022-09-07T01:17:10.401Z,1.65
2022-09-07T01:23:54.719Z,1.52
2022-09-07T01:30:06.456Z,1.30
2022-09-07T01:36:22.084Z,1.30
2022-09-07T01:42:38.108Z,1.47
2022-09-07T01:48:49.825Z,1.20
2022-09-07T01:55:04.833Z,1.25
2022-09-07T02:01:20.961Z,1.65
2022-09-07T02:07:34.595Z,1.10
2022-09-07T02:13:46.292Z,1.42
2022-09-07T02:20:00.846Z,1.05
2022-09-07T02:26:17.745Z,1.47
2022-09-07T02:32:31.246Z,1.20
2022-09-07T02:38:42.150Z,1.17
2022-09-07T02:44:55.069Z,1.02
2022-09-07T02:51:12.343Z,2.30
2022-09-07T02:57:29.403Z,1.12
2022-09-07T03:03:42.563Z,1.70
2022-09-07T03:09:53.891Z,1.80
2022-09-07T03:16:06.306Z,1.25
2022-09-07T03:22:14.913Z,1.22
2022-09-07T03:28:30.265Z,1.30
2022-09-07T03:34:40.292Z,1.55
2022-09-07T03:41:08.379Z,1.47
2022-09-07T03:47:17.503Z,1.47
2022-09-07T03:53:28.433Z,1.00
2022-09-07T03:59:41.669Z,1.05
2022-09-07T04:05:51.885Z,1.05
2022-09-07T04:12:03.603Z,1.27
2022-09-07T04:18:17.386Z,1.30
2022-09-07T04:24:31.701Z,1.37
2022-09-07T04:30:45.610Z,1.32
2022-09-07T04:37:00.501Z,1.30
2022-09-07T04:43:13.529Z,1.27
2022-09-07T04:49:26.035Z,0.85
2022-09-07T04:55:36.670Z,1.50
2022-09-07T05:01:47.094Z,1.37
2022-09-07T05:07:56.791Z,1.22
2022-09-07T05:14:07.398Z,1.25
2022-09-07T05:20:22.380Z,1.57
2022-09-07T05:26:34.960Z,1.25
2022-09-07T05:32:46.586Z,1.40
2022-09-07T05:38:56.095Z,1.57
2022-09-07T05:45:08.686Z,1.10
2022-09-07T05:51:37.684Z,1.57
2022-09-07T05:57:46.435Z,1.30
2022-09-07T06:03:59.408Z,1.55
2022-09-07T06:16:27.079Z,1.75
2022-09-07T06:22:36.280Z,1.45
2022-09-07T06:28:49.450Z,1.25
2022-09-07T06:35:00.033Z,1.55
2022-09-07T06:47:23.235Z,1.47
2022-09-07T06:53:39.345Z,1.07
2022-09-07T06:59:50.579Z,1.67
2022-09-07T07:06:03.257Z,1.40
2022-09-07T07:18:26.341Z,1.35
2022-09-07T07:24:37.410Z,2.25
2022-09-07T07:30:46.925Z,1.50
2022-09-07T07:36:58.028Z,1.82
2022-09-07T07:43:08.688Z,1.45
2022-09-07T07:49:19.072Z,1.52
2022-09-07T07:55:48.064Z,1.72
2022-09-07T08:01:49.330Z,1.47
2022-09-07T08:07:58.794Z,1.20
2022-09-07T08:14:12.277Z,1.80
2022-09-07T08:20:25.406Z,1.62
2022-09-07T08:26:37.931Z,1.72
2022-09-07T08:32:49.260Z,1.40
2022-09-07T08:39:01.196Z,1.60
2022-09-07T08:45:16.965Z,0.98
2022-09-07T08:51:31.159Z,1.70
2022-09-07T08:57:44.371Z,1.75
2022-09-07T09:10:19.039Z,1.30
2022-09-07T09:16:46.625Z,1.32
2022-09-07T09:22:56.419Z,1.57
2022-09-07T09:29:19.298Z,1.20
2022-09-07T09:35:32.071Z,1.42
2022-09-07T09:41:45.907Z,1.45
2022-09-07T09:47:59.177Z,1.70
2022-09-07T09:54:09.578Z,1.60
2022-09-07T10:00:29.923Z,1.47
2022-09-07T10:07:01.304Z,1.82
2022-09-07T10:13:14.210Z,1.20
2022-09-07T10:19:34.857Z,1.50
2022-09-07T10:25:48.162Z,1.92
2022-09-07T10:32:12.271Z,1.25
2022-09-07T10:38:22.119Z,1.60
2022-09-07T10:44:32.686Z,2.30
2022-09-07T10:50:48.616Z,1.20
2022-09-07T10:57:05.181Z,1.37
2022-09-07T11:09:41.525Z,1.75
2022-09-07T11:15:50.802Z,1.25
2022-09-07T11:22:01.752Z,1.95
2022-09-07T11:28:12.600Z,1.50
2022-09-07T11:34:24.139Z,2.17
2022-09-07T11:40:32.744Z,1.35
2022-09-07T11:46:43.257Z,1.77
2022-09-07T11:52:55.654Z,2.10
2022-09-07T11:59:14.103Z,1.60
2022-09-07T12:05:29.086Z,1.92
2022-09-07T12:18:52.311Z,1.40
2022-09-07T12:25:01.278Z,1.57
2022-09-07T12:31:16.949Z,1.70
2022-09-07T12:37:45.977Z,2.10
2022-09-07T12:44:13.833Z,1.57
2022-09-07T12:50:31.238Z,1.55
2022-09-07T12:56:46.379Z,1.98
2022-09-07T13:09:39.354Z,1.90
2022-09-07T13:15:52.047Z,1.70
2022-09-07T13:22:06.645Z,1.98
2022-09-07T13:28:28.993Z,1.42
2022-09-07T13:34:50.218Z,1.82
2022-09-07T13:41:00.967Z,2.30
2022-09-07T13:47:13.878Z,2.10
2022-09-07T13:53:43.852Z,1.70
2022-09-07T13:59:55.011Z,1.30
2022-09-07T14:06:33.428Z,2.30
2022-09-07T14:12:51.681Z,2.02
2022-09-07T14:19:02.524Z,1.62
2022-09-07T14:25:18.634Z,1.47
2022-09-07T14:31:31.419Z,1.90
2022-09-07T14:37:43.822Z,1.40
2022-09-07T14:44:00.827Z,2.00
2022-09-07T14:50:22.979Z,2.30
2022-09-07T14:56:36.259Z,1.80
2022-09-07T15:02:47.167Z,1.42
2022-09-07T15:08:55.712Z,1.32
2022-09-07T15:15:16.064Z,1.22
2022-09-07T15:21:23.751Z,1.00
2022-09-07T15:27:37.440Z,1.12
2022-09-07T15:34:05.832Z,1.50
2022-09-07T15:40:24.321Z,1.22
2022-09-07T15:47:42.471Z,2.10
2022-09-07T15:53:00.643Z,2.10
2022-09-07T15:59:08.811Z,1.07
2022-09-07T16:05:20.161Z,1.30
2022-09-07T16:11:35.199Z,1.60
2022-09-07T16:17:48.653Z,1.50
2022-09-07T16:23:58.399Z,1.40
2022-09-07T16:30:11.415Z,1.40
2022-09-07T16:36:24.053Z,1.25
2022-09-07T16:42:37.520Z,1.67
2022-09-07T16:48:48.398Z,1.17
2022-09-07T16:55:05.002Z,1.60
2022-09-07T17:01:17.868Z,3.65
2022-09-07T17:07:25.437Z,13.93
2022-09-07T17:13:37.269Z,25.62
2022-09-07T17:19:46.673Z,40.67
2022-09-07T17:25:57.928Z,54.85
2022-09-07T17:32:24.439Z,55.17
2022-09-07T17:44:37.821Z,38.15
2022-09-07T17:50:43.829Z,36.48
2022-09-07T17:56:57.170Z,39.27
2022-09-07T18:03:08.748Z,33.18
2022-09-07T18:09:20.446Z,32.55
2022-09-07T18:15:32.675Z,26.65
2022-09-07T18:21:46.926Z,22.93
2022-09-07T18:34:07.100Z,22.50
2022-09-07T18:40:21.527Z,19.90
2022-09-07T18:46:35.971Z,14.75
2022-09-07T18:52:53.754Z,16.40
2022-09-07T18:59:03.481Z,13.88
2022-09-07T19:11:28.505Z,14.45
2022-09-07T19:17:39.269Z,10.13
2022-09-07T19:23:50.518Z,11.90
2022-09-07T19:30:00.614Z,9.43
2022-09-07T19:36:09.523Z,11.12
2022-09-07T19:42:21.909Z,10.32
2022-09-07T19:48:35.001Z,10.40
2022-09-07T19:54:42.630Z,9.13
2022-09-07T20:00:53.393Z,8.85
2022-09-07T20:13:37.329Z,7.53
2022-09-07T20:19:48.447Z,6.83
2022-09-07T20:26:05.045Z,6.25
2022-09-07T20:32:16.488Z,6.58
2022-09-07T20:38:26.443Z,6.20
2022-09-07T20:44:38.839Z,5.55
2022-09-07T20:50:46.438Z,4.20
2022-09-07T20:56:54.324Z,4.45
2022-09-07T21:03:03.542Z,3.75
2022-09-07T21:09:12.976Z,2.83
2022-09-07T21:15:23.504Z,2.98
2022-09-07T21:21:33.739Z,4.03
2022-09-07T21:27:44.069Z,2.65
2022-09-07T21:33:57.660Z,4.20
2022-09-07T21:40:13.640Z,3.90
2022-09-07T21:46:27.294Z,3.50
2022-09-07T21:52:38.502Z,2.65
2022-09-07T21:58:48.867Z,3.35
2022-09-07T22:05:01.714Z,2.08
2022-09-07T22:11:12.596Z,2.45
2022-09-07T22:17:23.681Z,2.12
2022-09-07T22:23:35.063Z,2.20
2022-09-07T22:29:55.804Z,2.65
2022-09-07T22:36:14.492Z,3.62
2022-09-07T22:42:25.560Z,5.03
2022-09-07T22:48:36.044Z,5.03
2022-09-07T22:54:45.390Z,4.35
2022-09-07T23:00:59.424Z,4.67
2022-09-07T23:07:12.094Z,4.67
2022-09-07T23:13:24.720Z,2.70
2022-09-07T23:19:35.278Z,4.53
2022-09-07T23:25:46.303Z,3.22
2022-09-07T23:31:55.864Z,2.27
2022-09-07T23:38:06.035Z,3.55
2022-09-07T23:44:14.877Z,4.00
2022-09-07T23:50:23.401Z,3.90
2022-09-07T23:56:33.344Z,3.55
